Hoag, Nebraska
Current Conditions -  °F | °C
As of 10:15 PM on Tuesday 27 Jan 2015 (Local Time) from KBIE Reporting Station
Clear Clear  
Wind Chill: 38°   Ceiling: Unl
Heat Index: 44°   Visibility: 10mi
Dew Point: 31°   Wind: 10mph
Humidity: 62%   Direction: 120°ESE
Pressure: 29.97"   Gusts: NA
Location:  40.2674°N, 96.7699°W
Report Text: KBIE 280415Z AUTO 12009KT 10SM CLR 07/00 A2997 RMK AO2 T00651003
Loading
Personal Weather Stations






























Interactive Weather Map New forecast layout! Learn more

10-Day Weather Forecast

Advertisements
Track Severe Weather on mobile